Time;durP1;ratioP1;P1;durP2;ratioP2;P2;SDS_P1;SDS_P2;PMS_P1;PMS_P2;Temp;Humidity;BMP_temperature;BMP_pressure;BME280_temperature;BME280_humidity;BME280_pressure;Samples;Min_cycle;Max_cycle;Signal;HPM_P1;HPM_P2
2021/03/15 00:00:36;;;;;;;2.90;2.60;;;22.00;55.40;;;;;;5045197;28;20048;-37
2021/03/15 00:03:02;;;;;;;2.38;2.17;;;22.00;55.40;;;;;;5045220;28;20484;-37
2021/03/15 00:05:28;;;;;;;3.03;2.73;;;22.00;55.30;;;;;;5045102;28;20083;-37
2021/03/15 00:07:56;;;;;;;3.20;2.90;;;22.00;55.30;;;;;;5044383;28;20029;-37
2021/03/15 00:10:22;;;;;;;3.22;2.92;;;22.00;55.30;;;;;;5044722;28;20025;-37
2021/03/15 00:12:49;;;;;;;3.22;2.85;;;22.00;55.30;;;;;;5079476;28;20085;-37
2021/03/15 00:15:16;;;;;;;2.93;2.73;;;22.00;55.10;;;;;;5084631;28;20804;-37
2021/03/15 00:17:43;;;;;;;3.00;2.78;;;22.00;55.00;;;;;;5084610;28;20262;-37
2021/03/15 00:20:11;;;;;;;3.45;2.92;;;22.00;55.00;;;;;;5084805;28;20031;-37
2021/03/15 00:22:37;;;;;;;3.67;3.08;;;22.00;55.00;;;;;;5084604;28;20040;-37
2021/03/15 00:25:05;;;;;;;3.22;2.90;;;22.00;55.00;;;;;;5066772;28;20424;-37
2021/03/15 00:27:31;;;;;;;3.20;2.80;;;22.00;54.90;;;;;;5068343;28;20496;-37
2021/03/15 00:29:57;;;;;;;3.70;2.95;;;22.00;55.00;;;;;;5064672;28;20536;-37
2021/03/15 00:32:24;;;;;;;3.65;3.33;;;21.90;54.90;;;;;;5051655;28;20060;-37
2021/03/15 00:34:50;;;;;;;3.40;3.10;;;21.90;54.90;;;;;;5046157;28;20028;-37
2021/03/15 00:37:16;;;;;;;3.42;3.13;;;21.90;54.90;;;;;;5060984;28;20033;-37
2021/03/15 00:39:43;;;;;;;3.60;3.17;;;21.90;54.90;;;;;;5064231;28;20057;-37
2021/03/15 00:42:09;;;;;;;3.55;3.25;;;21.90;54.90;;;;;;5057931;28;20033;-37
2021/03/15 00:44:35;;;;;;;3.65;3.35;;;21.90;54.90;;;;;;5083563;28;20035;-37
2021/03/15 00:47:02;;;;;;;4.37;3.50;;;21.90;54.80;;;;;;5083870;28;20040;-37
2021/03/15 00:49:28;;;;;;;3.53;3.20;;;21.90;54.80;;;;;;5066208;28;20043;-37
2021/03/15 00:51:55;;;;;;;3.58;3.28;;;21.90;54.80;;;;;;5084062;28;20032;-37
2021/03/15 00:54:21;;;;;;;3.40;3.10;;;21.90;54.80;;;;;;5084051;28;20021;-37
2021/03/15 00:56:48;;;;;;;3.65;3.17;;;21.90;54.80;;;;;;5073825;28;20120;-37
2021/03/15 00:59:14;;;;;;;3.90;3.28;;;21.90;54.80;;;;;;5080660;28;20043;-37
2021/03/15 01:01:41;;;;;;;3.63;3.33;;;21.90;54.70;;;;;;5077323;28;20045;-37
2021/03/15 01:04:07;;;;;;;7.35;4.50;;;21.90;54.70;;;;;;5064060;28;20035;-37
2021/03/15 01:06:34;;;;;;;6.27;3.57;;;21.90;54.70;;;;;;5063545;28;20071;-37
2021/03/15 01:09:00;;;;;;;4.20;3.65;;;21.80;54.70;;;;;;5066286;28;20122;-37
2021/03/15 01:11:26;;;;;;;4.25;3.58;;;21.80;54.60;;;;;;5069616;28;20044;-37
2021/03/15 01:13:53;;;;;;;5.25;3.90;;;21.80;54.70;;;;;;5083084;28;20032;-37
2021/03/15 01:16:19;;;;;;;4.00;3.60;;;21.80;54.70;;;;;;5066361;28;20096;-37
2021/03/15 01:18:54;;;;;;;3.63;3.25;;;21.80;54.70;;;;;;5063223;28;20032;-37
2021/03/15 01:21:20;;;;;;;3.67;3.28;;;21.70;54.70;;;;;;5061941;28;20032;-37
2021/03/15 01:23:47;;;;;;;3.97;3.58;;;21.70;54.70;;;;;;5045528;28;20110;-37
2021/03/15 01:26:13;;;;;;;4.60;3.63;;;21.70;54.70;;;;;;5063370;28;20029;-37
2021/03/15 01:28:39;;;;;;;4.18;3.65;;;21.70;54.70;;;;;;5063216;28;20036;-37
2021/03/15 01:31:05;;;;;;;5.05;3.58;;;21.70;54.70;;;;;;5061535;28;20132;-38
2021/03/15 01:33:31;;;;;;;4.43;4.03;;;21.70;54.70;;;;;;5043204;28;20061;-38
2021/03/15 01:35:57;;;;;;;4.80;3.95;;;21.70;54.80;;;;;;5050117;28;20108;-37
2021/03/15 01:38:24;;;;;;;4.75;3.83;;;21.70;54.80;;;;;;5046316;28;20022;-37
2021/03/15 01:40:50;;;;;;;6.32;4.50;;;21.70;54.90;;;;;;5045605;28;20060;-37
2021/03/15 01:43:16;;;;;;;5.95;4.53;;;21.70;55.00;;;;;;5082910;28;20095;-37
2021/03/15 01:45:42;;;;;;;4.72;4.20;;;21.70;55.00;;;;;;5082969;28;20055;-37
2021/03/15 01:48:13;;;;;;;4.30;3.90;;;21.60;55.20;;;;;;5082666;28;20091;-38
2021/03/15 01:50:48;;;;;;;5.75;4.50;;;21.60;55.20;;;;;;5083004;28;20021;-37
2021/03/15 01:53:15;;;;;;;5.10;4.07;;;21.60;55.10;;;;;;5082923;28;20035;-38
2021/03/15 01:55:41;;;;;;;5.03;4.03;;;21.60;55.10;;;;;;5082354;28;20099;-37
2021/03/15 01:58:07;;;;;;;4.72;4.13;;;21.60;55.10;;;;;;5044692;28;20037;-37
2021/03/15 02:00:34;;;;;;;4.30;3.90;;;21.60;55.10;;;;;;5062862;28;20029;-37
2021/03/15 02:03:02;;;;;;;6.30;4.28;;;21.60;55.20;;;;;;5062855;28;20470;-37
2021/03/15 02:05:28;;;;;;;5.50;4.50;;;21.50;55.20;;;;;;5062936;28;20459;-37
2021/03/15 02:07:55;;;;;;;4.77;4.13;;;21.50;55.20;;;;;;5062388;28;20013;-37
2021/03/15 02:10:21;;;;;;;5.20;4.23;;;21.50;55.20;;;;;;5044751;28;20027;-40
2021/03/15 02:13:18;;;;;;;6.53;4.83;;;21.50;55.20;;;;;;5079689;28;20304;-37
2021/03/15 02:16:06;;;;;;;4.50;4.10;;;21.50;55.20;;;;;;5082765;28;20047;-37
2021/03/15 02:18:56;;;;;;;5.03;4.53;;;21.50;55.10;;;;;;5082480;28;20017;-37
2021/03/15 02:21:48;;;;;;;5.50;4.45;;;21.50;55.10;;;;;;5064758;28;20525;-37
2021/03/15 02:24:39;;;;;;;5.10;4.45;;;21.40;55.00;;;;;;5064341;28;20583;-37
2021/03/15 02:27:12;;;;;;;5.28;4.55;;;21.40;55.00;;;;;;5052366;28;20559;-37
2021/03/15 02:29:59;;;;;;;6.60;4.18;;;21.40;55.10;;;;;;5044211;28;20044;-38
2021/03/15 02:32:44;;;;;;;4.82;4.40;;;21.40;55.10;;;;;;5032289;28;20888;-37
2021/03/15 02:35:20;;;;;;;5.25;4.13;;;21.40;55.10;;;;;;5042478;28;20025;-37
2021/03/15 02:37:51;;;;;;;5.43;4.63;;;21.30;55.30;;;;;;5024436;28;20117;-37
2021/03/15 02:40:33;;;;;;;5.35;4.45;;;21.30;55.30;;;;;;5045226;28;20021;-37
2021/03/15 02:43:04;;;;;;;6.65;4.53;;;21.30;55.30;;;;;;5050882;28;20045;-37
2021/03/15 02:45:31;;;;;;;5.15;4.65;;;21.30;55.50;;;;;;5062124;28;20036;-37
2021/03/15 02:47:57;;;;;;;6.20;4.93;;;21.30;55.40;;;;;;5044567;28;20094;-37
2021/03/15 02:50:23;;;;;;;7.03;4.90;;;21.30;55.30;;;;;;5044245;28;20521;-37
2021/03/15 02:52:50;;;;;;;5.63;4.50;;;21.30;55.40;;;;;;5028035;28;20036;-37
2021/03/15 02:55:23;;;;;;;4.97;4.47;;;21.20;55.30;;;;;;5044455;28;20077;-37
2021/03/15 02:57:50;;;;;;;5.38;4.60;;;21.20;55.30;;;;;;5043736;28;20063;-37
2021/03/15 03:00:17;;;;;;;5.20;4.25;;;21.20;55.30;;;;;;5031679;28;20059;-37
2021/03/15 03:02:44;;;;;;;6.10;4.65;;;21.20;55.40;;;;;;5060317;28;20047;-37
2021/03/15 03:05:11;;;;;;;4.97;4.47;;;21.20;55.30;;;;;;5044083;28;20040;-38
2021/03/15 03:07:39;;;;;;;5.88;4.38;;;21.20;55.20;;;;;;5030309;28;20037;-37
2021/03/15 03:10:06;;;;;;;6.38;4.88;;;21.10;54.90;;;;;;5031796;28;20033;-37
2021/03/15 03:12:33;;;;;;;4.90;4.40;;;21.10;55.00;;;;;;5046618;28;20060;-37
2021/03/15 03:15:00;;;;;;;7.05;4.63;;;21.10;54.90;;;;;;5086195;28;20116;-38
2021/03/15 03:17:26;;;;;;;5.13;4.45;;;21.10;54.90;;;;;;5051626;28;20508;-37
2021/03/15 03:19:52;;;;;;;5.68;5.07;;;21.10;54.70;;;;;;5051137;28;20032;-37
2021/03/15 03:22:18;;;;;;;5.18;4.55;;;21.10;54.70;;;;;;5029191;28;20065;-37
2021/03/15 03:24:45;;;;;;;5.57;4.90;;;21.10;54.80;;;;;;5045838;28;20018;-37
2021/03/15 03:27:13;;;;;;;5.00;4.32;;;21.10;54.80;;;;;;5011610;28;20037;-37
2021/03/15 03:29:39;;;;;;;5.00;4.50;;;21.10;54.80;;;;;;5045392;28;20032;-37
2021/03/15 03:32:06;;;;;;;5.65;4.72;;;21.00;54.80;;;;;;5037942;28;20039;-37
2021/03/15 03:34:32;;;;;;;5.83;4.70;;;21.00;54.80;;;;;;5028937;28;20025;-37
2021/03/15 03:36:58;;;;;;;5.38;4.78;;;21.00;54.60;;;;;;5036748;28;20040;-37
2021/03/15 03:39:24;;;;;;;5.95;4.45;;;21.00;54.80;;;;;;5045028;28;20025;-37
2021/03/15 03:41:50;;;;;;;5.40;4.65;;;20.90;54.70;;;;;;5064433;28;20036;-37
2021/03/15 03:44:16;;;;;;;4.95;4.40;;;20.90;54.70;;;;;;5085629;28;20552;-37
2021/03/15 03:46:44;;;;;;;6.22;5.22;;;20.90;54.60;;;;;;5085298;28;20525;-37
2021/03/15 03:49:10;;;;;;;5.70;5.20;;;20.90;54.80;;;;;;5085124;28;20025;-37
2021/03/15 03:51:49;;;;;;;6.88;4.72;;;20.90;54.60;;;;;;5085526;28;20036;-37
2021/03/15 03:54:22;;;;;;;5.28;4.72;;;20.90;54.60;;;;;;5051010;28;20033;-37
2021/03/15 03:56:55;;;;;;;5.38;4.85;;;20.90;54.60;;;;;;5057170;28;20029;-37
2021/03/15 03:59:22;;;;;;;4.60;4.20;;;20.90;54.50;;;;;;5064879;28;20052;-38
2021/03/15 04:01:49;;;;;;;;;;;20.90;54.50;;;;;;5065469;28;20101;-37
2021/03/15 04:04:23;;;;;;;5.95;4.60;;;20.90;54.30;;;;;;5065093;28;20344;-37
2021/03/15 04:06:50;;;;;;;4.68;4.28;;;20.80;54.40;;;;;;5047119;28;20029;-38
2021/03/15 04:09:19;;;;;;;5.15;4.57;;;20.80;54.40;;;;;;5064615;28;20078;-37
2021/03/15 04:11:47;;;;;;;5.40;4.38;;;20.80;54.40;;;;;;5055274;28;20104;-37
2021/03/15 04:14:16;;;;;;;5.70;5.10;;;20.80;54.40;;;;;;5085051;28;20043;-38
2021/03/15 04:16:42;;;;;;;4.78;4.38;;;20.80;54.40;;;;;;5084966;28;20040;-37
2021/03/15 04:19:08;;;;;;;7.00;4.93;;;20.80;54.40;;;;;;5065537;28;20059;-36
2021/03/15 04:21:34;;;;;;;6.65;5.30;;;20.80;54.50;;;;;;5066952;28;20047;-37
2021/03/15 04:24:01;;;;;;;6.28;5.40;;;20.70;54.50;;;;;;5050339;28;20029;-37
2021/03/15 04:26:28;;;;;;;6.57;5.18;;;20.70;54.50;;;;;;5043206;28;20108;-36
2021/03/15 04:28:54;;;;;;;5.93;5.33;;;20.70;54.50;;;;;;5046653;28;20037;-37
2021/03/15 04:31:20;;;;;;;5.55;4.88;;;20.70;54.60;;;;;;5064707;28;20025;-37
2021/03/15 04:33:46;;;;;;;5.25;4.75;;;20.70;54.50;;;;;;5064715;28;20025;-37
2021/03/15 04:36:17;;;;;;;6.03;4.85;;;20.70;54.50;;;;;;5042890;28;20033;-37
2021/03/15 04:38:43;;;;;;;5.80;4.88;;;20.70;54.60;;;;;;5027241;28;20056;-37
2021/03/15 04:41:09;;;;;;;5.25;4.25;;;20.60;54.50;;;;;;5017600;28;20024;-37
2021/03/15 04:43:36;;;;;;;5.00;4.50;;;20.60;54.50;;;;;;5066435;28;20092;-37
2021/03/15 04:46:02;;;;;;;6.78;5.05;;;20.60;54.50;;;;;;5050077;28;20102;-37
2021/03/15 04:48:29;;;;;;;6.72;5.22;;;20.60;54.50;;;;;;5084261;28;20036;-37
2021/03/15 04:50:57;;;;;;;6.03;4.93;;;20.60;54.50;;;;;;5066088;28;20032;-37
2021/03/15 04:53:23;;;;;;;5.32;4.82;;;20.60;54.60;;;;;;5049748;28;20036;-37
2021/03/15 04:55:50;;;;;;;5.95;5.35;;;20.60;54.60;;;;;;5047897;28;20047;-37
2021/03/15 04:58:16;;;;;;;6.50;5.03;;;20.60;54.50;;;;;;5064021;28;20021;-37
2021/03/15 05:00:44;;;;;;;5.65;4.68;;;20.60;54.50;;;;;;5029379;28;20027;-37
2021/03/15 05:03:12;;;;;;;5.65;5.03;;;20.60;54.60;;;;;;5049080;28;20048;-37
2021/03/15 05:05:39;;;;;;;5.60;5.00;;;20.50;54.50;;;;;;5046220;28;20029;-37
2021/03/15 05:08:05;;;;;;;7.38;5.50;;;20.50;54.50;;;;;;5029637;28;20044;-37
2021/03/15 05:10:32;;;;;;;6.13;5.32;;;20.50;54.60;;;;;;5048885;28;20027;-38
2021/03/15 05:12:59;;;;;;;6.15;5.55;;;20.50;54.60;;;;;;5047238;28;20063;-37
2021/03/15 05:15:25;;;;;;;5.60;4.93;;;20.50;55.20;;;;;;5029885;28;20013;-37
2021/03/15 05:17:51;;;;;;;6.32;5.18;;;20.50;54.60;;;;;;5029310;28;20029;-37
2021/03/15 05:20:17;;;;;;;6.30;5.10;;;20.50;54.70;;;;;;5045434;28;20056;-37
2021/03/15 05:22:44;;;;;;;6.97;5.43;;;20.40;54.70;;;;;;5045589;28;20045;-37
2021/03/15 05:25:11;;;;;;;5.93;5.20;;;20.40;54.70;;;;;;5045882;28;20024;-37
2021/03/15 05:27:39;;;;;;;5.95;5.28;;;20.40;54.60;;;;;;5063132;28;20493;-37
2021/03/15 05:30:07;;;;;;;6.25;5.53;;;20.40;54.70;;;;;;5047321;28;20033;-37
2021/03/15 05:32:36;;;;;;;6.25;5.20;;;20.40;54.70;;;;;;5063179;28;20075;-37
2021/03/15 05:35:03;;;;;;;5.85;5.25;;;20.40;54.60;;;;;;5063418;28;20029;-37
2021/03/15 05:37:29;;;;;;;6.28;5.25;;;20.40;54.70;;;;;;5050633;28;20033;-37
2021/03/15 05:39:55;;;;;;;6.28;5.28;;;20.40;54.70;;;;;;5063198;28;20029;-37
2021/03/15 05:42:22;;;;;;;5.93;5.32;;;20.40;54.70;;;;;;5076694;28;20036;-37
2021/03/15 05:45:30;;;;;;;6.03;5.10;;;20.40;54.70;;;;;;5083286;28;20032;-37
2021/03/15 05:48:53;;;;;;;5.80;5.07;;;20.30;54.60;;;;;;5031425;28;20041;-37
2021/03/15 05:51:40;;;;;;;6.43;5.45;;;20.30;54.70;;;;;;4981580;28;20160;-37
2021/03/15 05:54:43;;;;;;;5.90;5.18;;;20.30;54.80;;;;;;4981671;28;20571;-37
2021/03/15 05:57:46;;;;;;;5.85;5.32;;;20.30;54.80;;;;;;4981204;28;20034;-37
2021/03/15 06:00:45;;;;;;;6.00;5.20;;;20.30;54.80;;;;;;4981488;28;20061;-37
2021/03/15 06:03:23;;;;;;;5.95;5.10;;;20.20;54.80;;;;;;4965482;28;20059;-37
2021/03/15 06:05:49;;;;;;;6.25;5.28;;;20.20;54.80;;;;;;4981454;28;20054;-37
2021/03/15 06:08:23;;;;;;;5.90;5.25;;;20.20;54.80;;;;;;4964972;28;20041;-37
2021/03/15 06:11:16;;;;;;;5.70;5.10;;;20.20;54.90;;;;;;4982107;28;20026;-37
2021/03/15 06:13:43;;;;;;;9.05;5.93;;;20.20;54.80;;;;;;5000720;28;20045;-37
2021/03/15 06:16:10;;;;;;;6.22;5.63;;;20.20;54.80;;;;;;5000630;28;20038;-37
2021/03/15 06:18:37;;;;;;;6.28;5.55;;;20.20;54.80;;;;;;5000789;28;20038;-37
2021/03/15 06:21:03;;;;;;;6.45;5.65;;;20.20;54.80;;;;;;5003738;28;20035;-37
2021/03/15 06:23:29;;;;;;;5.20;4.70;;;20.20;54.80;;;;;;5081608;28;20053;-37
2021/03/15 06:25:56;;;;;;;5.47;4.97;;;20.20;54.80;;;;;;5061955;28;20024;-37
2021/03/15 06:28:23;;;;;;;5.65;5.07;;;20.20;54.80;;;;;;5062508;28;20055;-37
2021/03/15 06:30:51;;;;;;;5.50;4.93;;;20.20;54.80;;;;;;5062495;28;20031;-37
2021/03/15 06:33:17;;;;;;;6.72;5.18;;;20.20;54.90;;;;;;5042431;28;20059;-37
2021/03/15 06:35:57;;;;;;;6.35;5.70;;;20.20;54.90;;;;;;5049906;28;20033;-37
2021/03/15 06:38:25;;;;;;;6.07;5.13;;;20.10;54.80;;;;;;5043493;28;20033;-37
2021/03/15 06:40:51;;;;;;;5.68;5.07;;;20.10;54.90;;;;;;5044546;28;20032;-37
2021/03/15 06:43:19;;;;;;;5.80;5.20;;;20.10;54.90;;;;;;5047385;28;20108;-37
2021/03/15 06:45:49;;;;;;;6.05;5.22;;;20.10;55.00;;;;;;5082571;28;20020;-37
2021/03/15 06:48:16;;;;;;;6.50;5.28;;;20.10;55.00;;;;;;5082469;28;20027;-37
2021/03/15 06:50:42;;;;;;;5.57;5.03;;;20.00;55.00;;;;;;5082057;28;20057;-37
2021/03/15 06:53:08;;;;;;;6.65;5.18;;;20.00;55.00;;;;;;5082503;28;20044;-37
2021/03/15 06:55:37;;;;;;;6.75;5.50;;;20.00;55.10;;;;;;5082461;28;20028;-37
2021/03/15 06:58:31;;;;;;;6.05;5.45;;;20.00;55.00;;;;;;5042221;28;20040;-38
2021/03/15 07:01:11;;;;;;;6.53;5.22;;;20.00;55.00;;;;;;5035774;28;20449;-37
2021/03/15 07:03:37;;;;;;;6.00;5.40;;;20.00;55.00;;;;;;5082432;28;20025;-37
2021/03/15 07:06:04;;;;;;;6.10;5.45;;;20.00;55.00;;;;;;5064238;28;20060;-37
2021/03/15 07:08:30;;;;;;;6.15;5.55;;;20.00;55.00;;;;;;5082165;28;20032;-37
2021/03/15 07:10:56;;;;;;;6.70;5.63;;;20.00;55.00;;;;;;5070253;28;20037;-41
2021/03/15 07:13:24;;;;;;;5.82;5.25;;;20.00;55.00;;;;;;5064122;28;20033;-37
2021/03/15 07:15:54;;;;;;;7.43;5.85;;;20.00;55.00;;;;;;5062209;28;20033;-37
2021/03/15 07:18:36;;;;;;;5.90;5.20;;;20.00;55.10;;;;;;5044269;28;20043;-37
2021/03/15 07:21:04;;;;;;;5.85;5.25;;;20.00;55.10;;;;;;5061895;28;20021;-37
2021/03/15 07:23:49;;;;;;;5.85;5.28;;;20.00;55.10;;;;;;5061973;28;20033;-37
2021/03/15 07:26:23;;;;;;;6.97;5.45;;;19.90;55.00;;;;;;5061853;28;20478;-37
2021/03/15 07:28:50;;;;;;;5.82;5.22;;;19.90;55.10;;;;;;5061989;28;20040;-37
2021/03/15 07:31:32;;;;;;;5.93;5.33;;;19.90;55.20;;;;;;5058363;28;20026;-37
2021/03/15 07:33:58;;;;;;;5.88;5.10;;;19.90;55.10;;;;;;5041058;28;20025;-37
2021/03/15 07:36:28;;;;;;;5.93;5.32;;;19.90;55.20;;;;;;5050597;28;20026;-37
2021/03/15 07:38:55;;;;;;;6.78;5.70;;;19.90;55.20;;;;;;5024113;28;20018;-37
2021/03/15 07:41:22;;;;;;;6.07;5.28;;;19.90;55.20;;;;;;5052706;28;20047;-37
2021/03/15 07:43:48;;;;;;;6.18;5.57;;;19.80;55.20;;;;;;5081824;28;20043;-37
2021/03/15 07:46:21;;;;;;;5.65;5.00;;;19.90;55.10;;;;;;5063766;28;20052;-37
2021/03/15 07:48:48;;;;;;;5.90;5.30;;;19.80;55.10;;;;;;5081947;28;20029;-37
2021/03/15 07:51:14;;;;;;;7.20;6.10;;;19.80;55.10;;;;;;5081484;28;20032;-37
2021/03/15 07:53:47;;;;;;;5.72;5.10;;;19.80;55.10;;;;;;5084020;28;20052;-37
2021/03/15 07:56:22;;;;;;;5.90;5.30;;;19.80;55.20;;;;;;5080405;28;20237;-37
2021/03/15 07:58:49;;;;;;;5.55;5.05;;;19.80;55.10;;;;;;5065176;28;20719;-37
2021/03/15 08:01:17;;;;;;;5.95;5.30;;;19.80;55.20;;;;;;5046848;28;20047;-37
2021/03/15 08:03:43;;;;;;;6.35;5.47;;;19.80;55.20;;;;;;5064981;28;20033;-37
2021/03/15 08:06:10;;;;;;;6.78;5.90;;;19.80;55.20;;;;;;5047330;28;20017;-36
2021/03/15 08:08:40;;;;;;;6.72;5.28;;;19.80;55.20;;;;;;5064971;28;20029;-37
2021/03/15 08:11:07;;;;;;;6.20;5.43;;;19.80;55.20;;;;;;5068069;28;20104;-37
2021/03/15 08:13:37;;;;;;;;;;;19.80;55.30;;;;;;5085386;28;20029;-37
2021/03/15 08:16:04;;;;;;;5.30;4.70;;;19.70;55.20;;;;;;5085088;28;19912;-37
2021/03/15 08:18:31;;;;;;;5.70;5.10;;;19.70;55.40;;;;;;5069580;28;20033;-48
2021/03/15 08:21:05;;;;;;;6.28;5.30;;;19.70;55.40;;;;;;5064774;28;20029;-37
2021/03/15 08:23:32;;;;;;;6.72;5.70;;;19.70;55.30;;;;;;5064600;28;20036;-38
2021/03/15 08:26:07;;;;;;;5.85;5.25;;;19.70;55.40;;;;;;5064709;28;20031;-37
2021/03/15 08:28:34;;;;;;;6.35;5.57;;;19.70;55.50;;;;;;5046991;28;20036;-37
2021/03/15 08:31:12;;;;;;;5.88;5.28;;;19.70;55.40;;;;;;5063780;28;20021;-37
2021/03/15 08:33:38;;;;;;;6.13;5.38;;;19.60;55.40;;;;;;5011376;28;20057;-37
2021/03/15 08:36:05;;;;;;;5.97;5.28;;;19.70;55.40;;;;;;5027194;28;20851;-37
2021/03/15 08:38:32;;;;;;;6.32;5.50;;;19.60;55.40;;;;;;5010605;28;20030;-37
2021/03/15 08:40:59;;;;;;;;;;;19.60;55.40;;;;;;5045011;28;20041;-37
2021/03/15 08:43:29;;;;;;;6.57;5.47;;;19.60;55.30;;;;;;5044115;28;20445;-37
2021/03/15 08:46:12;;;;;;;6.47;5.32;;;19.60;55.50;;;;;;5044496;28;20104;-37
2021/03/15 08:48:41;;;;;;;5.50;4.95;;;19.60;55.40;;;;;;5074843;28;20028;-36
2021/03/15 08:51:08;;;;;;;6.57;5.07;;;19.60;55.40;;;;;;5084292;28;20664;-37
2021/03/15 08:53:37;;;;;;;6.20;5.40;;;19.60;55.50;;;;;;5084046;28;20035;-37
2021/03/15 08:56:13;;;;;;;6.55;5.22;;;19.60;55.50;;;;;;5080655;28;20258;-37
2021/03/15 08:58:43;;;;;;;6.43;5.55;;;19.60;55.50;;;;;;5047520;28;20051;-37
2021/03/15 09:01:09;;;;;;;6.00;5.40;;;19.60;55.50;;;;;;5066415;28;20057;-37
2021/03/15 09:03:54;;;;;;;5.65;5.15;;;19.60;55.50;;;;;;5065884;28;20037;-37
2021/03/15 09:06:40;;;;;;;6.97;5.38;;;19.60;55.60;;;;;;5083804;28;20476;-37
2021/03/15 09:09:11;;;;;;;5.68;5.05;;;19.50;55.60;;;;;;5083932;28;20060;-37
2021/03/15 09:11:38;;;;;;;5.82;4.90;;;19.50;55.60;;;;;;5083808;28;20048;-37
2021/03/15 09:14:16;;;;;;;5.25;4.75;;;19.50;55.60;;;;;;5083500;28;20055;-37
2021/03/15 09:16:56;;;;;;;5.25;4.75;;;19.50;55.60;;;;;;5069024;28;20040;-37
2021/03/15 09:19:24;;;;;;;6.10;5.13;;;19.50;55.60;;;;;;5052331;28;20097;-37
2021/03/15 09:22:01;;;;;;;5.97;5.38;;;19.50;55.50;;;;;;5063788;28;20037;-37
2021/03/15 09:24:34;;;;;;;6.00;4.97;;;19.50;55.60;;;;;;5063716;28;20021;-37
2021/03/15 09:27:27;;;;;;;6.40;5.38;;;19.50;55.60;;;;;;5063513;28;20040;-36
2021/03/15 09:29:57;;;;;;;6.30;5.22;;;19.50;55.50;;;;;;5056758;28;20169;-37
2021/03/15 09:32:30;;;;;;;5.22;4.72;;;19.40;55.50;;;;;;5050642;28;20041;-37
2021/03/15 09:34:58;;;;;;;5.63;5.07;;;19.50;55.70;;;;;;5047154;28;20067;-36
2021/03/15 09:37:25;;;;;;;5.95;5.28;;;19.40;55.60;;;;;;5021436;28;20032;-37
2021/03/15 09:39:51;;;;;;;5.28;4.78;;;19.40;55.60;;;;;;5043474;28;20474;-37
2021/03/15 09:42:20;;;;;;;5.45;4.90;;;19.40;55.70;;;;;;5043187;28;20068;-37
2021/03/15 09:44:46;;;;;;;5.60;5.03;;;19.40;55.60;;;;;;5064096;28;20107;-37
2021/03/15 09:47:14;;;;;;;5.72;5.15;;;19.40;55.70;;;;;;5066189;28;20166;-37
2021/03/15 09:49:41;;;;;;;5.25;4.75;;;19.40;55.70;;;;;;5083283;28;20028;-37
2021/03/15 09:52:23;;;;;;;5.30;4.80;;;19.40;55.60;;;;;;5083548;28;20016;-37
2021/03/15 09:54:54;;;;;;;7.15;4.72;;;19.40;55.60;;;;;;5083069;28;20036;-37
2021/03/15 09:57:21;;;;;;;5.95;4.78;;;19.40;55.70;;;;;;5051241;28;20036;-37
2021/03/15 09:59:48;;;;;;;5.97;5.22;;;19.40;55.80;;;;;;5062990;28;20024;-36
2021/03/15 10:02:15;;;;;;;5.63;5.05;;;19.40;55.70;;;;;;5033697;28;20065;-36
2021/03/15 10:04:41;;;;;;;7.03;4.97;;;19.30;55.70;;;;;;5042751;28;20052;-37
2021/03/15 10:07:11;;;;;;;6.55;5.07;;;19.30;55.70;;;;;;5043143;28;20039;-37
2021/03/15 10:09:39;;;;;;;5.85;5.25;;;19.30;55.70;;;;;;5042903;28;20013;-37
2021/03/15 10:12:14;;;;;;;5.22;4.72;;;19.30;55.70;;;;;;5042688;28;20058;-37
2021/03/15 10:14:41;;;;;;;4.70;4.30;;;19.30;55.70;;;;;;5009307;28;20035;-36
2021/03/15 10:17:07;;;;;;;5.20;4.70;;;19.30;55.70;;;;;;5041992;28;20026;-37
2021/03/15 10:19:33;;;;;;;5.32;4.82;;;19.30;55.70;;;;;;5042854;28;20040;-37
2021/03/15 10:22:13;;;;;;;5.07;4.47;;;19.30;55.80;;;;;;5042945;28;20057;-37
2021/03/15 10:24:39;;;;;;;5.47;4.70;;;19.30;55.80;;;;;;5025389;28;20029;-37
2021/03/15 10:27:20;;;;;;;5.82;4.90;;;19.30;55.90;;;;;;5054935;28;20439;-37
2021/03/15 10:30:10;;;;;;;4.95;4.47;;;19.30;55.90;;;;;;5062762;28;20040;-36
2021/03/15 10:32:36;;;;;;;5.13;4.60;;;19.30;55.90;;;;;;5040585;28;20080;-37
2021/03/15 10:35:06;;;;;;;5.85;5.22;;;19.20;56.00;;;;;;5051024;28;20063;-37
2021/03/15 10:37:33;;;;;;;5.50;4.95;;;19.20;56.00;;;;;;5064869;28;20634;-37
2021/03/15 10:40:00;;;;;;;5.05;4.60;;;19.20;55.90;;;;;;5039145;28;20083;-36
2021/03/15 10:42:26;;;;;;;5.20;4.70;;;19.20;56.00;;;;;;5035851;28;20069;-37
2021/03/15 10:44:52;;;;;;;5.00;4.50;;;19.20;56.10;;;;;;5044397;28;20024;-37
2021/03/15 10:47:35;;;;;;;5.28;4.57;;;19.20;56.00;;;;;;5028021;28;20036;-37
2021/03/15 10:50:01;;;;;;;5.07;4.60;;;19.20;55.90;;;;;;5048606;28;20025;-37
2021/03/15 10:52:34;;;;;;;5.68;5.00;;;19.20;56.00;;;;;;5042659;28;20025;-37
2021/03/15 10:55:23;;;;;;;5.22;4.72;;;19.20;55.80;;;;;;5042139;28;20093;-37
2021/03/15 10:58:07;;;;;;;;;;;19.20;55.90;;;;;;5042765;28;20029;-37
2021/03/15 11:00:35;;;;;;;5.35;4.55;;;19.10;56.00;;;;;;5042383;28;19920;-37
2021/03/15 11:03:01;;;;;;;4.93;4.43;;;19.10;56.00;;;;;;5042322;28;20113;-37
2021/03/15 11:05:28;;;;;;;5.10;4.60;;;19.10;56.00;;;;;;5059005;28;20025;-38
2021/03/15 11:07:54;;;;;;;5.22;4.72;;;19.10;56.00;;;;;;5044590;28;20025;-37
2021/03/15 11:10:24;;;;;;;5.45;4.57;;;19.10;56.00;;;;;;5062153;28;20051;-36
2021/03/15 11:12:55;;;;;;;5.65;4.70;;;19.10;56.10;;;;;;5063437;28;20051;-37
2021/03/15 11:15:36;;;;;;;5.25;4.57;;;19.10;56.10;;;;;;5082033;28;20055;-37
2021/03/15 11:18:11;;;;;;;4.93;4.30;;;19.10;56.10;;;;;;5082462;28;20040;-37
2021/03/15 11:20:48;;;;;;;4.90;4.40;;;19.10;56.20;;;;;;5082469;28;20021;-37
2021/03/15 11:23:26;;;;;;;5.47;4.80;;;19.10;56.20;;;;;;5082368;28;20064;-36
2021/03/15 11:25:59;;;;;;;5.53;5.03;;;19.00;56.30;;;;;;5079910;28;20027;-37
2021/03/15 11:28:30;;;;;;;5.70;4.90;;;19.10;56.20;;;;;;5063976;28;20029;-36
2021/03/15 11:30:59;;;;;;;4.78;4.38;;;19.00;56.10;;;;;;5066556;28;20052;-37
2021/03/15 11:33:25;;;;;;;4.85;4.45;;;19.00;56.20;;;;;;5086097;28;20031;-37
2021/03/15 11:35:51;;;;;;;5.28;4.78;;;19.00;56.20;;;;;;5056904;28;20027;-37
2021/03/15 11:38:21;;;;;;;5.10;4.60;;;19.00;56.30;;;;;;5045650;28;20025;-37
2021/03/15 11:40:48;;;;;;;5.13;4.63;;;19.00;56.20;;;;;;5045636;28;20043;-37
2021/03/15 11:43:14;;;;;;;5.95;4.97;;;19.00;56.10;;;;;;5027507;28;20068;-37
2021/03/15 11:45:40;;;;;;;4.97;4.47;;;19.00;56.10;;;;;;5041929;28;20478;-37
2021/03/15 11:48:08;;;;;;;4.88;4.38;;;19.00;56.10;;;;;;5085758;28;20024;-37
2021/03/15 11:50:37;;;;;;;4.28;3.88;;;19.00;56.10;;;;;;5085584;28;20052;-37
2021/03/15 11:53:04;;;;;;;4.88;4.47;;;19.00;56.10;;;;;;5085617;28;20135;-37
2021/03/15 11:55:30;;;;;;;4.55;4.15;;;19.00;56.20;;;;;;5085107;28;20082;-36
2021/03/15 11:57:57;;;;;;;5.10;4.10;;;18.90;56.40;;;;;;5066277;28;20112;-37
2021/03/15 12:00:23;;;;;;;4.13;3.00;;;18.90;56.30;;;;;;5065351;28;20048;-37
2021/03/15 12:02:52;;;;;;;5.17;4.03;;;18.90;56.30;;;;;;5048894;28;20056;-37
2021/03/15 12:05:19;;;;;;;5.00;4.50;;;18.90;56.30;;;;;;5060434;28;20646;-37
2021/03/15 12:07:45;;;;;;;5.43;4.53;;;18.90;56.30;;;;;;5064500;28;20040;-37
2021/03/15 12:10:13;;;;;;;5.07;4.50;;;18.90;56.40;;;;;;5065058;28;20347;-37
2021/03/15 12:12:39;;;;;;;;;;;18.90;56.50;;;;;;5065485;28;20048;-36
2021/03/15 12:15:10;;;;;;;4.93;4.35;;;18.90;56.50;;;;;;5047056;28;19909;-36
2021/03/15 12:17:36;;;;;;;4.45;4.05;;;18.90;56.50;;;;;;5064715;28;20044;-37
2021/03/15 12:20:05;;;;;;;4.95;4.32;;;18.90;56.60;;;;;;5064976;28;20033;-37
2021/03/15 12:22:32;;;;;;;4.88;4.38;;;18.90;56.60;;;;;;5065061;28;20044;-37
2021/03/15 12:24:58;;;;;;;4.43;4.03;;;18.90;56.50;;;;;;5064619;28;20032;-37
2021/03/15 12:27:24;;;;;;;4.40;4.00;;;18.90;56.50;;;;;;5064752;28;20083;-37
2021/03/15 12:29:50;;;;;;;5.28;3.97;;;18.80;56.40;;;;;;5064778;28;20025;-37
2021/03/15 12:32:16;;;;;;;4.60;4.20;;;18.80;56.40;;;;;;5076259;28;20028;-37
2021/03/15 12:34:43;;;;;;;4.20;3.80;;;18.90;56.50;;;;;;5073862;28;20040;-36
2021/03/15 12:37:09;;;;;;;4.47;4.03;;;18.90;56.50;;;;;;5046736;28;20025;-37
2021/03/15 12:39:35;;;;;;;4.78;3.97;;;18.80;56.50;;;;;;5063498;28;20523;-36
2021/03/15 12:42:01;;;;;;;4.68;4.20;;;18.80;56.60;;;;;;5064554;28;20048;-37
2021/03/15 12:44:27;;;;;;;5.25;4.57;;;18.80;56.50;;;;;;5046585;28;20020;-38
2021/03/15 12:46:53;;;;;;;4.57;4.18;;;18.80;56.60;;;;;;5064225;28;20040;-37
2021/03/15 12:49:20;;;;;;;4.07;3.70;;;18.80;56.60;;;;;;5064558;28;20017;-36
2021/03/15 12:51:46;;;;;;;4.57;4.18;;;18.80;56.60;;;;;;5064454;28;20056;-37
2021/03/15 12:54:12;;;;;;;4.88;4.25;;;18.80;56.70;;;;;;5064353;28;20071;-36
2021/03/15 12:56:38;;;;;;;4.90;4.28;;;18.80;56.60;;;;;;5057160;28;20026;-37
2021/03/15 12:59:04;;;;;;;4.53;4.13;;;18.80;56.70;;;;;;5050403;28;20033;-36
2021/03/15 13:01:31;;;;;;;4.13;3.72;;;18.80;56.90;;;;;;5044151;28;20025;-37